sensor_id;sensor_type;location;lat;lon;timestamp;P1;durP1;ratioP1;P2;durP2;ratioP2
12758;SDS011;20944;47.048;15.390;2024-02-04T00:00:10;16.17;;;9.37;;
12758;SDS011;20944;47.048;15.390;2024-02-04T00:02:39;14.03;;;9.33;;
12758;SDS011;20944;47.048;15.390;2024-02-04T00:05:08;14.57;;;8.30;;
12758;SDS011;20944;47.048;15.390;2024-02-04T00:07:36;14.93;;;8.97;;
12758;SDS011;20944;47.048;15.390;2024-02-04T00:10:05;14.30;;;8.13;;
12758;SDS011;20944;47.048;15.390;2024-02-04T00:12:35;15.03;;;9.33;;
12758;SDS011;20944;47.048;15.390;2024-02-04T00:15:04;14.13;;;8.47;;
12758;SDS011;20944;47.048;15.390;2024-02-04T00:17:33;13.60;;;8.63;;
12758;SDS011;20944;47.048;15.390;2024-02-04T00:20:02;19.17;;;9.37;;
12758;SDS011;20944;47.048;15.390;2024-02-04T00:22:32;15.27;;;8.67;;
12758;SDS011;20944;47.048;15.390;2024-02-04T00:25:01;17.17;;;9.43;;
12758;SDS011;20944;47.048;15.390;2024-02-04T00:27:32;14.73;;;9.17;;
12758;SDS011;20944;47.048;15.390;2024-02-04T00:30:02;19.07;;;9.83;;
12758;SDS011;20944;47.048;15.390;2024-02-04T00:32:30;16.77;;;8.40;;
12758;SDS011;20944;47.048;15.390;2024-02-04T00:34:59;17.53;;;9.10;;
12758;SDS011;20944;47.048;15.390;2024-02-04T00:37:27;15.27;;;9.00;;
12758;SDS011;20944;47.048;15.390;2024-02-04T00:39:56;14.47;;;8.93;;
12758;SDS011;20944;47.048;15.390;2024-02-04T00:42:24;13.97;;;8.90;;
12758;SDS011;20944;47.048;15.390;2024-02-04T00:44:53;15.63;;;9.07;;
12758;SDS011;20944;47.048;15.390;2024-02-04T00:47:22;16.47;;;8.80;;
12758;SDS011;20944;47.048;15.390;2024-02-04T00:49:52;14.27;;;9.37;;
12758;SDS011;20944;47.048;15.390;2024-02-04T00:52:21;11.87;;;7.50;;
12758;SDS011;20944;47.048;15.390;2024-02-04T00:54:49;18.13;;;9.23;;
12758;SDS011;20944;47.048;15.390;2024-02-04T00:57:18;17.07;;;9.37;;
12758;SDS011;20944;47.048;15.390;2024-02-04T00:59:46;16.53;;;8.43;;
12758;SDS011;20944;47.048;15.390;2024-02-04T01:02:16;14.80;;;9.10;;
12758;SDS011;20944;47.048;15.390;2024-02-04T01:04:46;12.83;;;8.87;;
12758;SDS011;20944;47.048;15.390;2024-02-04T01:07:17;17.87;;;9.60;;
12758;SDS011;20944;47.048;15.390;2024-02-04T01:09:45;19.10;;;9.30;;
12758;SDS011;20944;47.048;15.390;2024-02-04T01:12:14;14.23;;;8.77;;
12758;SDS011;20944;47.048;15.390;2024-02-04T01:14:42;15.83;;;8.27;;
12758;SDS011;20944;47.048;15.390;2024-02-04T01:17:11;16.20;;;8.77;;
12758;SDS011;20944;47.048;15.390;2024-02-04T01:19:39;14.53;;;8.77;;
12758;SDS011;20944;47.048;15.390;2024-02-04T01:22:09;17.73;;;8.93;;
12758;SDS011;20944;47.048;15.390;2024-02-04T01:24:38;14.27;;;8.60;;
12758;SDS011;20944;47.048;15.390;2024-02-04T01:27:07;14.60;;;8.40;;
12758;SDS011;20944;47.048;15.390;2024-02-04T01:29:35;15.97;;;9.97;;
12758;SDS011;20944;47.048;15.390;2024-02-04T01:32:04;15.53;;;9.17;;
12758;SDS011;20944;47.048;15.390;2024-02-04T01:34:32;20.53;;;10.10;;
12758;SDS011;20944;47.048;15.390;2024-02-04T01:37:01;16.83;;;8.80;;
12758;SDS011;20944;47.048;15.390;2024-02-04T01:39:32;17.17;;;9.50;;
12758;SDS011;20944;47.048;15.390;2024-02-04T01:42:00;15.20;;;9.03;;
12758;SDS011;20944;47.048;15.390;2024-02-04T01:44:29;14.10;;;8.57;;
12758;SDS011;20944;47.048;15.390;2024-02-04T01:46:57;14.93;;;8.83;;
12758;SDS011;20944;47.048;15.390;2024-02-04T01:49:26;17.60;;;8.30;;
12758;SDS011;20944;47.048;15.390;2024-02-04T01:51:54;15.23;;;9.43;;
12758;SDS011;20944;47.048;15.390;2024-02-04T01:54:24;16.53;;;9.50;;
12758;SDS011;20944;47.048;15.390;2024-02-04T01:56:55;14.97;;;9.13;;
12758;SDS011;20944;47.048;15.390;2024-02-04T01:59:24;12.27;;;8.53;;
12758;SDS011;20944;47.048;15.390;2024-02-04T02:01:56;15.10;;;8.60;;
12758;SDS011;20944;47.048;15.390;2024-02-04T02:04:27;14.67;;;9.40;;
12758;SDS011;20944;47.048;15.390;2024-02-04T02:06:55;18.53;;;9.93;;
12758;SDS011;20944;47.048;15.390;2024-02-04T02:09:26;14.17;;;8.93;;
12758;SDS011;20944;47.048;15.390;2024-02-04T02:12:00;14.80;;;9.07;;
12758;SDS011;20944;47.048;15.390;2024-02-04T02:14:33;15.83;;;9.20;;
12758;SDS011;20944;47.048;15.390;2024-02-04T02:17:06;16.67;;;9.17;;
12758;SDS011;20944;47.048;15.390;2024-02-04T02:19:46;15.37;;;8.67;;
12758;SDS011;20944;47.048;15.390;2024-02-04T02:22:26;15.53;;;8.97;;
12758;SDS011;20944;47.048;15.390;2024-02-04T02:24:58;15.93;;;9.40;;
12758;SDS011;20944;47.048;15.390;2024-02-04T02:27:27;17.00;;;8.93;;
12758;SDS011;20944;47.048;15.390;2024-02-04T02:29:55;13.07;;;8.80;;
12758;SDS011;20944;47.048;15.390;2024-02-04T02:32:24;14.67;;;7.57;;
12758;SDS011;20944;47.048;15.390;2024-02-04T02:34:53;15.33;;;9.53;;
12758;SDS011;20944;47.048;15.390;2024-02-04T02:37:23;16.30;;;9.10;;
12758;SDS011;20944;47.048;15.390;2024-02-04T02:40:01;16.70;;;10.13;;
12758;SDS011;20944;47.048;15.390;2024-02-04T02:42:33;15.83;;;9.33;;
12758;SDS011;20944;47.048;15.390;2024-02-04T02:45:04;18.43;;;9.20;;
12758;SDS011;20944;47.048;15.390;2024-02-04T02:47:35;15.10;;;8.47;;
12758;SDS011;20944;47.048;15.390;2024-02-04T02:50:06;14.27;;;9.27;;
12758;SDS011;20944;47.048;15.390;2024-02-04T02:52:36;13.67;;;9.30;;
12758;SDS011;20944;47.048;15.390;2024-02-04T02:55:06;15.63;;;8.40;;
12758;SDS011;20944;47.048;15.390;2024-02-04T02:57:35;15.73;;;8.97;;
12758;SDS011;20944;47.048;15.390;2024-02-04T03:00:04;17.60;;;9.57;;
12758;SDS011;20944;47.048;15.390;2024-02-04T03:02:34;17.53;;;8.77;;
12758;SDS011;20944;47.048;15.390;2024-02-04T03:05:03;15.57;;;9.40;;
12758;SDS011;20944;47.048;15.390;2024-02-04T03:07:32;17.40;;;9.60;;
12758;SDS011;20944;47.048;15.390;2024-02-04T03:10:00;14.87;;;8.70;;
12758;SDS011;20944;47.048;15.390;2024-02-04T03:12:31;17.13;;;9.27;;
12758;SDS011;20944;47.048;15.390;2024-02-04T03:14:59;16.07;;;8.40;;
12758;SDS011;20944;47.048;15.390;2024-02-04T03:17:27;13.93;;;8.47;;
12758;SDS011;20944;47.048;15.390;2024-02-04T03:19:56;14.57;;;9.37;;
12758;SDS011;20944;47.048;15.390;2024-02-04T03:22:24;15.53;;;8.73;;
12758;SDS011;20944;47.048;15.390;2024-02-04T03:24:53;15.10;;;8.90;;
12758;SDS011;20944;47.048;15.390;2024-02-04T03:27:21;14.10;;;8.40;;
12758;SDS011;20944;47.048;15.390;2024-02-04T03:29:51;14.00;;;8.80;;
12758;SDS011;20944;47.048;15.390;2024-02-04T03:32:19;15.87;;;9.03;;
12758;SDS011;20944;47.048;15.390;2024-02-04T03:34:48;13.50;;;7.97;;
12758;SDS011;20944;47.048;15.390;2024-02-04T03:37:16;13.60;;;8.43;;
12758;SDS011;20944;47.048;15.390;2024-02-04T03:39:45;14.67;;;8.33;;
12758;SDS011;20944;47.048;15.390;2024-02-04T03:42:13;15.63;;;9.00;;
12758;SDS011;20944;47.048;15.390;2024-02-04T03:44:41;12.47;;;8.80;;
12758;SDS011;20944;47.048;15.390;2024-02-04T03:47:11;16.53;;;8.50;;
12758;SDS011;20944;47.048;15.390;2024-02-04T03:49:40;12.70;;;7.50;;
12758;SDS011;20944;47.048;15.390;2024-02-04T03:52:08;13.00;;;8.37;;
12758;SDS011;20944;47.048;15.390;2024-02-04T03:54:37;15.83;;;8.77;;
12758;SDS011;20944;47.048;15.390;2024-02-04T03:57:05;18.20;;;8.47;;
12758;SDS011;20944;47.048;15.390;2024-02-04T03:59:34;16.60;;;8.83;;
12758;SDS011;20944;47.048;15.390;2024-02-04T04:02:02;15.40;;;8.80;;
12758;SDS011;20944;47.048;15.390;2024-02-04T04:04:32;13.97;;;8.13;;
12758;SDS011;20944;47.048;15.390;2024-02-04T04:07:01;14.97;;;8.53;;
12758;SDS011;20944;47.048;15.390;2024-02-04T04:09:30;17.63;;;8.17;;
12758;SDS011;20944;47.048;15.390;2024-02-04T04:11:59;16.17;;;8.53;;
12758;SDS011;20944;47.048;15.390;2024-02-04T04:14:27;16.83;;;8.50;;
12758;SDS011;20944;47.048;15.390;2024-02-04T04:16:56;16.33;;;8.30;;
12758;SDS011;20944;47.048;15.390;2024-02-04T04:19:24;10.87;;;6.50;;
12758;SDS011;20944;47.048;15.390;2024-02-04T04:21:54;14.57;;;7.17;;
12758;SDS011;20944;47.048;15.390;2024-02-04T04:24:23;12.70;;;7.30;;
12758;SDS011;20944;47.048;15.390;2024-02-04T04:26:52;11.60;;;6.97;;
12758;SDS011;20944;47.048;15.390;2024-02-04T04:29:20;11.07;;;7.37;;
12758;SDS011;20944;47.048;15.390;2024-02-04T04:31:49;13.47;;;7.17;;
12758;SDS011;20944;47.048;15.390;2024-02-04T04:34:18;12.17;;;7.13;;
12758;SDS011;20944;47.048;15.390;2024-02-04T04:36:46;14.90;;;8.27;;
12758;SDS011;20944;47.048;15.390;2024-02-04T04:39:16;13.37;;;6.60;;
12758;SDS011;20944;47.048;15.390;2024-02-04T04:41:45;13.33;;;8.13;;
12758;SDS011;20944;47.048;15.390;2024-02-04T04:44:13;13.20;;;7.57;;
12758;SDS011;20944;47.048;15.390;2024-02-04T04:46:41;13.50;;;7.20;;
12758;SDS011;20944;47.048;15.390;2024-02-04T04:49:10;13.13;;;7.13;;
12758;SDS011;20944;47.048;15.390;2024-02-04T04:51:38;18.33;;;8.03;;
12758;SDS011;20944;47.048;15.390;2024-02-04T04:54:07;12.83;;;7.13;;
12758;SDS011;20944;47.048;15.390;2024-02-04T04:56:39;12.67;;;7.47;;
12758;SDS011;20944;47.048;15.390;2024-02-04T04:59:09;11.50;;;6.73;;
12758;SDS011;20944;47.048;15.390;2024-02-04T05:01:37;10.87;;;7.13;;
12758;SDS011;20944;47.048;15.390;2024-02-04T05:04:12;10.30;;;6.87;;
12758;SDS011;20944;47.048;15.390;2024-02-04T05:06:41;10.23;;;7.50;;
12758;SDS011;20944;47.048;15.390;2024-02-04T05:09:09;16.27;;;7.47;;
12758;SDS011;20944;47.048;15.390;2024-02-04T05:11:39;11.33;;;7.17;;
12758;SDS011;20944;47.048;15.390;2024-02-04T05:14:07;14.87;;;7.00;;
12758;SDS011;20944;47.048;15.390;2024-02-04T05:16:36;14.27;;;7.60;;
12758;SDS011;20944;47.048;15.390;2024-02-04T05:19:04;12.17;;;7.27;;
12758;SDS011;20944;47.048;15.390;2024-02-04T05:21:33;12.40;;;6.67;;
12758;SDS011;20944;47.048;15.390;2024-02-04T05:24:05;13.53;;;7.83;;
12758;SDS011;20944;47.048;15.390;2024-02-04T05:26:33;11.37;;;6.77;;
12758;SDS011;20944;47.048;15.390;2024-02-04T05:29:03;13.33;;;7.00;;
12758;SDS011;20944;47.048;15.390;2024-02-04T05:31:32;12.30;;;7.47;;
12758;SDS011;20944;47.048;15.390;2024-02-04T05:34:04;14.40;;;7.87;;
12758;SDS011;20944;47.048;15.390;2024-02-04T05:36:34;12.53;;;7.03;;
12758;SDS011;20944;47.048;15.390;2024-02-04T05:39:08;14.07;;;7.07;;
12758;SDS011;20944;47.048;15.390;2024-02-04T05:41:38;15.80;;;8.17;;
12758;SDS011;20944;47.048;15.390;2024-02-04T05:44:08;9.97;;;6.90;;
12758;SDS011;20944;47.048;15.390;2024-02-04T05:46:37;15.07;;;7.87;;
12758;SDS011;20944;47.048;15.390;2024-02-04T05:49:06;14.67;;;7.77;;
12758;SDS011;20944;47.048;15.390;2024-02-04T05:51:37;14.53;;;8.90;;
12758;SDS011;20944;47.048;15.390;2024-02-04T05:54:07;14.13;;;8.13;;
12758;SDS011;20944;47.048;15.390;2024-02-04T05:56:36;13.87;;;8.10;;
12758;SDS011;20944;47.048;15.390;2024-02-04T05:59:04;20.10;;;8.87;;
12758;SDS011;20944;47.048;15.390;2024-02-04T06:01:34;16.00;;;7.80;;
12758;SDS011;20944;47.048;15.390;2024-02-04T06:04:02;13.83;;;7.93;;
12758;SDS011;20944;47.048;15.390;2024-02-04T06:06:31;10.27;;;7.90;;
12758;SDS011;20944;47.048;15.390;2024-02-04T06:09:00;15.47;;;7.30;;
12758;SDS011;20944;47.048;15.390;2024-02-04T06:11:29;13.90;;;8.07;;
12758;SDS011;20944;47.048;15.390;2024-02-04T06:13:57;12.07;;;7.47;;
12758;SDS011;20944;47.048;15.390;2024-02-04T06:16:25;16.63;;;8.37;;
12758;SDS011;20944;47.048;15.390;2024-02-04T06:18:55;12.27;;;7.90;;
12758;SDS011;20944;47.048;15.390;2024-02-04T06:21:25;14.87;;;7.90;;
12758;SDS011;20944;47.048;15.390;2024-02-04T06:23:53;12.33;;;7.83;;
12758;SDS011;20944;47.048;15.390;2024-02-04T06:26:21;16.03;;;8.23;;
12758;SDS011;20944;47.048;15.390;2024-02-04T06:28:50;14.73;;;7.67;;
12758;SDS011;20944;47.048;15.390;2024-02-04T06:31:19;13.90;;;8.37;;
12758;SDS011;20944;47.048;15.390;2024-02-04T06:33:47;12.63;;;8.17;;
12758;SDS011;20944;47.048;15.390;2024-02-04T06:36:17;13.30;;;8.20;;
12758;SDS011;20944;47.048;15.390;2024-02-04T06:38:46;11.87;;;7.43;;
12758;SDS011;20944;47.048;15.390;2024-02-04T06:41:14;13.77;;;8.40;;
12758;SDS011;20944;47.048;15.390;2024-02-04T06:43:42;13.40;;;8.10;;
12758;SDS011;20944;47.048;15.390;2024-02-04T06:46:11;15.77;;;8.43;;
12758;SDS011;20944;47.048;15.390;2024-02-04T06:48:39;11.80;;;8.27;;
12758;SDS011;20944;47.048;15.390;2024-02-04T06:51:08;13.83;;;7.77;;
12758;SDS011;20944;47.048;15.390;2024-02-04T06:53:38;12.17;;;7.83;;
12758;SDS011;20944;47.048;15.390;2024-02-04T06:56:07;15.80;;;8.93;;
12758;SDS011;20944;47.048;15.390;2024-02-04T06:58:37;14.07;;;8.57;;
12758;SDS011;20944;47.048;15.390;2024-02-04T07:01:05;19.37;;;9.40;;
12758;SDS011;20944;47.048;15.390;2024-02-04T07:03:34;13.33;;;8.40;;
12758;SDS011;20944;47.048;15.390;2024-02-04T07:06:02;12.70;;;8.13;;
12758;SDS011;20944;47.048;15.390;2024-02-04T07:08:32;13.23;;;7.63;;
12758;SDS011;20944;47.048;15.390;2024-02-04T07:11:01;13.73;;;8.43;;
12758;SDS011;20944;47.048;15.390;2024-02-04T07:13:30;18.70;;;9.43;;
12758;SDS011;20944;47.048;15.390;2024-02-04T07:15:59;15.33;;;8.50;;
12758;SDS011;20944;47.048;15.390;2024-02-04T07:18:27;14.20;;;8.57;;
12758;SDS011;20944;47.048;15.390;2024-02-04T07:20:56;15.40;;;9.00;;
12758;SDS011;20944;47.048;15.390;2024-02-04T07:23:24;13.67;;;8.53;;
12758;SDS011;20944;47.048;15.390;2024-02-04T07:25:53;12.07;;;7.63;;
12758;SDS011;20944;47.048;15.390;2024-02-04T07:28:23;13.63;;;8.97;;
12758;SDS011;20944;47.048;15.390;2024-02-04T07:30:51;15.37;;;7.87;;
12758;SDS011;20944;47.048;15.390;2024-02-04T07:33:19;13.83;;;8.57;;
12758;SDS011;20944;47.048;15.390;2024-02-04T07:35:48;12.40;;;8.23;;
12758;SDS011;20944;47.048;15.390;2024-02-04T07:38:16;16.03;;;8.57;;
12758;SDS011;20944;47.048;15.390;2024-02-04T07:40:45;13.87;;;8.00;;
12758;SDS011;20944;47.048;15.390;2024-02-04T07:43:13;13.63;;;9.23;;
12758;SDS011;20944;47.048;15.390;2024-02-04T07:45:43;14.93;;;9.30;;
12758;SDS011;20944;47.048;15.390;2024-02-04T07:48:12;15.43;;;9.13;;
12758;SDS011;20944;47.048;15.390;2024-02-04T07:50:40;14.77;;;9.73;;
12758;SDS011;20944;47.048;15.390;2024-02-04T07:53:09;16.67;;;9.07;;
12758;SDS011;20944;47.048;15.390;2024-02-04T07:55:37;18.60;;;9.27;;
12758;SDS011;20944;47.048;15.390;2024-02-04T07:58:05;16.37;;;8.80;;
12758;SDS011;20944;47.048;15.390;2024-02-04T08:00:34;17.17;;;9.30;;
12758;SDS011;20944;47.048;15.390;2024-02-04T08:03:04;14.93;;;8.80;;
12758;SDS011;20944;47.048;15.390;2024-02-04T08:05:32;14.03;;;8.63;;
12758;SDS011;20944;47.048;15.390;2024-02-04T08:08:02;13.90;;;9.03;;
12758;SDS011;20944;47.048;15.390;2024-02-04T08:10:31;16.60;;;8.70;;
12758;SDS011;20944;47.048;15.390;2024-02-04T08:12:59;15.83;;;9.50;;
12758;SDS011;20944;47.048;15.390;2024-02-04T08:15:28;17.23;;;8.40;;
12758;SDS011;20944;47.048;15.390;2024-02-04T08:17:57;15.47;;;8.63;;
12758;SDS011;20944;47.048;15.390;2024-02-04T08:20:27;14.50;;;8.97;;
12758;SDS011;20944;47.048;15.390;2024-02-04T08:22:55;15.93;;;9.10;;
12758;SDS011;20944;47.048;15.390;2024-02-04T08:25:23;14.33;;;8.83;;
12758;SDS011;20944;47.048;15.390;2024-02-04T08:27:52;15.00;;;9.27;;
12758;SDS011;20944;47.048;15.390;2024-02-04T08:30:24;17.07;;;9.77;;
12758;SDS011;20944;47.048;15.390;2024-02-04T08:32:53;11.73;;;8.50;;
12758;SDS011;20944;47.048;15.390;2024-02-04T08:35:22;15.03;;;8.93;;
12758;SDS011;20944;47.048;15.390;2024-02-04T08:37:51;16.50;;;8.97;;
12758;SDS011;20944;47.048;15.390;2024-02-04T08:40:20;17.93;;;9.97;;
12758;SDS011;20944;47.048;15.390;2024-02-04T08:42:48;16.30;;;8.50;;
12758;SDS011;20944;47.048;15.390;2024-02-04T08:45:17;18.87;;;9.97;;
12758;SDS011;20944;47.048;15.390;2024-02-04T08:47:45;13.10;;;8.37;;
12758;SDS011;20944;47.048;15.390;2024-02-04T08:50:14;16.23;;;9.27;;
12758;SDS011;20944;47.048;15.390;2024-02-04T08:52:42;14.63;;;9.10;;
12758;SDS011;20944;47.048;15.390;2024-02-04T08:55:12;16.57;;;9.27;;
12758;SDS011;20944;47.048;15.390;2024-02-04T08:57:41;15.80;;;9.37;;
12758;SDS011;20944;47.048;15.390;2024-02-04T09:00:10;14.50;;;9.43;;
12758;SDS011;20944;47.048;15.390;2024-02-04T09:02:39;16.73;;;10.17;;
12758;SDS011;20944;47.048;15.390;2024-02-04T09:05:08;16.77;;;10.43;;
12758;SDS011;20944;47.048;15.390;2024-02-04T09:07:37;15.17;;;10.43;;
12758;SDS011;20944;47.048;15.390;2024-02-04T09:10:07;18.03;;;11.23;;
12758;SDS011;20944;47.048;15.390;2024-02-04T09:12:37;16.43;;;10.63;;
12758;SDS011;20944;47.048;15.390;2024-02-04T09:15:06;17.80;;;10.97;;
12758;SDS011;20944;47.048;15.390;2024-02-04T09:17:35;14.40;;;10.07;;
12758;SDS011;20944;47.048;15.390;2024-02-04T09:20:04;19.27;;;10.70;;
12758;SDS011;20944;47.048;15.390;2024-02-04T09:22:34;16.97;;;8.97;;
12758;SDS011;20944;47.048;15.390;2024-02-04T09:25:03;16.87;;;9.97;;
12758;SDS011;20944;47.048;15.390;2024-02-04T09:27:33;17.07;;;10.23;;
12758;SDS011;20944;47.048;15.390;2024-02-04T09:30:03;18.10;;;9.23;;
12758;SDS011;20944;47.048;15.390;2024-02-04T09:32:32;17.93;;;9.67;;
12758;SDS011;20944;47.048;15.390;2024-02-04T09:35:01;15.40;;;9.23;;
12758;SDS011;20944;47.048;15.390;2024-02-04T09:37:30;16.10;;;8.90;;
12758;SDS011;20944;47.048;15.390;2024-02-04T09:39:59;14.47;;;8.40;;
12758;SDS011;20944;47.048;15.390;2024-02-04T09:42:27;14.40;;;9.30;;
12758;SDS011;20944;47.048;15.390;2024-02-04T09:44:57;19.63;;;9.30;;
12758;SDS011;20944;47.048;15.390;2024-02-04T09:47:27;12.73;;;8.37;;
12758;SDS011;20944;47.048;15.390;2024-02-04T09:49:57;13.13;;;8.20;;
12758;SDS011;20944;47.048;15.390;2024-02-04T09:52:28;16.87;;;7.83;;
12758;SDS011;20944;47.048;15.390;2024-02-04T09:54:59;15.57;;;8.63;;
12758;SDS011;20944;47.048;15.390;2024-02-04T09:57:28;17.67;;;9.20;;
12758;SDS011;20944;47.048;15.390;2024-02-04T09:59:57;15.77;;;8.93;;
12758;SDS011;20944;47.048;15.390;2024-02-04T10:02:29;15.23;;;8.67;;
12758;SDS011;20944;47.048;15.390;2024-02-04T10:04:58;17.93;;;8.97;;
12758;SDS011;20944;47.048;15.390;2024-02-04T10:07:27;11.90;;;7.20;;
12758;SDS011;20944;47.048;15.390;2024-02-04T10:09:56;10.77;;;7.20;;
12758;SDS011;20944;47.048;15.390;2024-02-04T10:12:25;13.30;;;6.53;;
12758;SDS011;20944;47.048;15.390;2024-02-04T10:14:54;10.17;;;5.63;;
12758;SDS011;20944;47.048;15.390;2024-02-04T10:17:23;12.23;;;5.90;;
12758;SDS011;20944;47.048;15.390;2024-02-04T10:19:53;7.43;;;4.63;;
12758;SDS011;20944;47.048;15.390;2024-02-04T10:22:21;11.53;;;5.50;;
12758;SDS011;20944;47.048;15.390;2024-02-04T10:24:50;8.03;;;4.83;;
12758;SDS011;20944;47.048;15.390;2024-02-04T10:27:19;8.47;;;4.80;;
12758;SDS011;20944;47.048;15.390;2024-02-04T10:30:01;9.13;;;4.40;;
12758;SDS011;20944;47.048;15.390;2024-02-04T10:32:31;5.37;;;3.90;;
12758;SDS011;20944;47.048;15.390;2024-02-04T10:35:01;5.97;;;3.97;;
12758;SDS011;20944;47.048;15.390;2024-02-04T10:37:30;8.33;;;4.20;;
12758;SDS011;20944;47.048;15.390;2024-02-04T10:39:58;10.33;;;4.10;;
12758;SDS011;20944;47.048;15.390;2024-02-04T10:42:33;6.70;;;3.60;;
12758;SDS011;20944;47.048;15.390;2024-02-04T10:45:06;7.07;;;3.80;;
12758;SDS011;20944;47.048;15.390;2024-02-04T10:47:37;11.00;;;4.47;;
12758;SDS011;20944;47.048;15.390;2024-02-04T10:50:11;9.23;;;4.77;;
12758;SDS011;20944;47.048;15.390;2024-02-04T10:52:42;7.03;;;4.13;;
12758;SDS011;20944;47.048;15.390;2024-02-04T10:55:23;5.53;;;3.57;;
12758;SDS011;20944;47.048;15.390;2024-02-04T10:57:57;6.43;;;3.97;;
12758;SDS011;20944;47.048;15.390;2024-02-04T11:00:43;8.67;;;4.43;;
12758;SDS011;20944;47.048;15.390;2024-02-04T11:03:12;8.70;;;5.07;;
12758;SDS011;20944;47.048;15.390;2024-02-04T11:05:47;11.37;;;4.40;;
12758;SDS011;20944;47.048;15.390;2024-02-04T11:08:18;5.57;;;3.87;;
12758;SDS011;20944;47.048;15.390;2024-02-04T11:10:46;6.33;;;3.67;;
12758;SDS011;20944;47.048;15.390;2024-02-04T11:13:27;8.90;;;3.60;;
12758;SDS011;20944;47.048;15.390;2024-02-04T11:16:12;3.87;;;2.80;;
12758;SDS011;20944;47.048;15.390;2024-02-04T11:18:52;6.43;;;3.50;;
12758;SDS011;20944;47.048;15.390;2024-02-04T11:21:42;4.30;;;2.47;;
12758;SDS011;20944;47.048;15.390;2024-02-04T11:24:27;10.40;;;3.00;;
12758;SDS011;20944;47.048;15.390;2024-02-04T11:27:11;3.83;;;2.27;;
12758;SDS011;20944;47.048;15.390;2024-02-04T11:29:52;4.87;;;2.23;;
12758;SDS011;20944;47.048;15.390;2024-02-04T11:32:29;8.43;;;2.70;;
12758;SDS011;20944;47.048;15.390;2024-02-04T11:34:58;2.60;;;2.27;;
12758;SDS011;20944;47.048;15.390;2024-02-04T11:37:31;6.57;;;2.50;;
12758;SDS011;20944;47.048;15.390;2024-02-04T11:40:00;10.37;;;3.60;;
12758;SDS011;20944;47.048;15.390;2024-02-04T11:42:31;5.13;;;3.17;;
12758;SDS011;20944;47.048;15.390;2024-02-04T11:45:08;5.07;;;3.37;;
12758;SDS011;20944;47.048;15.390;2024-02-04T11:47:37;7.30;;;3.37;;
12758;SDS011;20944;47.048;15.390;2024-02-04T11:50:09;3.03;;;2.50;;
12758;SDS011;20944;47.048;15.390;2024-02-04T11:52:50;5.97;;;2.60;;
12758;SDS011;20944;47.048;15.390;2024-02-04T11:55:38;4.17;;;2.53;;
12758;SDS011;20944;47.048;15.390;2024-02-04T11:58:21;6.57;;;2.80;;
12758;SDS011;20944;47.048;15.390;2024-02-04T12:01:03;3.25;;;2.28;;
12758;SDS011;20944;47.048;15.390;2024-02-04T12:03:43;3.23;;;2.67;;
12758;SDS011;20944;47.048;15.390;2024-02-04T12:06:19;9.20;;;2.90;;
12758;SDS011;20944;47.048;15.390;2024-02-04T12:09:07;3.90;;;2.60;;
12758;SDS011;20944;47.048;15.390;2024-02-04T12:11:48;3.20;;;2.03;;
12758;SDS011;20944;47.048;15.390;2024-02-04T12:14:24;4.68;;;2.40;;
12758;SDS011;20944;47.048;15.390;2024-02-04T12:17:06;4.13;;;1.80;;
12758;SDS011;20944;47.048;15.390;2024-02-04T12:20:00;5.50;;;2.25;;
12758;SDS011;20944;47.048;15.390;2024-02-04T12:22:43;4.93;;;1.98;;
12758;SDS011;20944;47.048;15.390;2024-02-04T12:25:25;2.27;;;1.73;;
12758;SDS011;20944;47.048;15.390;2024-02-04T12:28:16;4.97;;;1.47;;
12758;SDS011;20944;47.048;15.390;2024-02-04T12:31:05;5.70;;;2.10;;
12758;SDS011;20944;47.048;15.390;2024-02-04T12:33:36;4.77;;;2.30;;
12758;SDS011;20944;47.048;15.390;2024-02-04T12:36:11;6.57;;;2.13;;
12758;SDS011;20944;47.048;15.390;2024-02-04T12:38:56;5.75;;;2.00;;
12758;SDS011;20944;47.048;15.390;2024-02-04T12:41:39;1.87;;;1.23;;
12758;SDS011;20944;47.048;15.390;2024-02-04T12:44:30;3.33;;;1.60;;
12758;SDS011;20944;47.048;15.390;2024-02-04T12:47:11;6.77;;;2.03;;
12758;SDS011;20944;47.048;15.390;2024-02-04T12:49:45;2.80;;;1.90;;
12758;SDS011;20944;47.048;15.390;2024-02-04T12:52:29;3.70;;;1.70;;
12758;SDS011;20944;47.048;15.390;2024-02-04T12:55:09;3.23;;;2.10;;
12758;SDS011;20944;47.048;15.390;2024-02-04T12:58:06;4.17;;;2.40;;
12758;SDS011;20944;47.048;15.390;2024-02-04T13:01:04;3.80;;;1.93;;
12758;SDS011;20944;47.048;15.390;2024-02-04T13:03:51;3.88;;;2.13;;
12758;SDS011;20944;47.048;15.390;2024-02-04T13:06:31;2.97;;;1.95;;
12758;SDS011;20944;47.048;15.390;2024-02-04T13:09:29;2.28;;;1.75;;
12758;SDS011;20944;47.048;15.390;2024-02-04T13:12:10;5.65;;;1.83;;
12758;SDS011;20944;47.048;15.390;2024-02-04T13:14:54;3.00;;;1.80;;
12758;SDS011;20944;47.048;15.390;2024-02-04T13:20:20;3.72;;;1.85;;
12758;SDS011;20944;47.048;15.390;2024-02-04T13:22:59;3.63;;;1.70;;
12758;SDS011;20944;47.048;15.390;2024-02-04T13:25:36;1.92;;;1.33;;
12758;SDS011;20944;47.048;15.390;2024-02-04T13:28:15;2.42;;;1.67;;
12758;SDS011;20944;47.048;15.390;2024-02-04T13:30:52;4.38;;;1.60;;
12758;SDS011;20944;47.048;15.390;2024-02-04T13:33:39;3.28;;;2.10;;
12758;SDS011;20944;47.048;15.390;2024-02-04T13:36:14;6.68;;;1.80;;
12758;SDS011;20944;47.048;15.390;2024-02-04T13:39:14;2.13;;;1.80;;
12758;SDS011;20944;47.048;15.390;2024-02-04T13:41:54;1.48;;;1.38;;
12758;SDS011;20944;47.048;15.390;2024-02-04T13:44:41;2.08;;;1.45;;
12758;SDS011;20944;47.048;15.390;2024-02-04T13:47:19;4.95;;;1.63;;
12758;SDS011;20944;47.048;15.390;2024-02-04T13:49:55;2.03;;;1.70;;
12758;SDS011;20944;47.048;15.390;2024-02-04T13:52:31;4.10;;;1.58;;
12758;SDS011;20944;47.048;15.390;2024-02-04T13:55:08;4.20;;;2.00;;
12758;SDS011;20944;47.048;15.390;2024-02-04T13:57:57;2.00;;;1.80;;
12758;SDS011;20944;47.048;15.390;2024-02-04T14:00:49;3.72;;;1.90;;
12758;SDS011;20944;47.048;15.390;2024-02-04T14:03:44;1.92;;;1.70;;
12758;SDS011;20944;47.048;15.390;2024-02-04T14:06:22;1.98;;;1.77;;
12758;SDS011;20944;47.048;15.390;2024-02-04T14:08:56;3.13;;;1.98;;
12758;SDS011;20944;47.048;15.390;2024-02-04T14:11:34;3.17;;;2.22;;
12758;SDS011;20944;47.048;15.390;2024-02-04T14:14:22;3.08;;;2.08;;
12758;SDS011;20944;47.048;15.390;2024-02-04T14:17:17;2.83;;;1.85;;
12758;SDS011;20944;47.048;15.390;2024-02-04T14:20:03;2.17;;;1.98;;
12758;SDS011;20944;47.048;15.390;2024-02-04T14:25:45;2.92;;;1.90;;
12758;SDS011;20944;47.048;15.390;2024-02-04T14:28:29;6.03;;;2.03;;
12758;SDS011;20944;47.048;15.390;2024-02-04T14:31:11;3.10;;;1.90;;
12758;SDS011;20944;47.048;15.390;2024-02-04T14:33:56;2.42;;;2.00;;
12758;SDS011;20944;47.048;15.390;2024-02-04T14:36:48;2.35;;;1.50;;
12758;SDS011;20944;47.048;15.390;2024-02-04T14:39:36;7.28;;;2.17;;
12758;SDS011;20944;47.048;15.390;2024-02-04T14:42:43;2.50;;;1.92;;
12758;SDS011;20944;47.048;15.390;2024-02-04T14:45:24;2.05;;;1.95;;
12758;SDS011;20944;47.048;15.390;2024-02-04T14:48:07;3.67;;;1.80;;
12758;SDS011;20944;47.048;15.390;2024-02-04T14:50:52;2.30;;;1.65;;
12758;SDS011;20944;47.048;15.390;2024-02-04T14:53:35;5.10;;;2.17;;
12758;SDS011;20944;47.048;15.390;2024-02-04T14:56:19;3.05;;;1.70;;
12758;SDS011;20944;47.048;15.390;2024-02-04T14:58:47;5.03;;;1.60;;
12758;SDS011;20944;47.048;15.390;2024-02-04T15:01:17;2.33;;;2.00;;